Time;durP1;ratioP1;P1;durP2;ratioP2;P2;SDS_P1;SDS_P2;PMS_P1;PMS_P2;Temp;Humidity;BMP_temperature;BMP_pressure;BME280_temperature;BME280_humidity;BME280_pressure;Samples;Min_cycle;Max_cycle;Signal;HPM_P1;HPM_P2
2023/12/21 00:01:40;;;;;;;1999.90;999.90;;;;;;;13.60;89.17;100550.50;10455987;28;20049;-63
2023/12/21 00:06:43;;;;;;;1999.90;999.90;;;;;;;14.55;85.64;100534.50;10457072;28;20488;-63
2023/12/21 00:11:45;;;;;;;1999.90;999.90;;;;;;;14.50;82.79;100511.13;10456929;28;20057;-63
2023/12/21 00:16:48;;;;;;;1999.90;999.90;;;;;;;13.98;82.06;100498.56;10456944;28;20123;-63
2023/12/21 00:21:50;;;;;;;1999.90;999.90;;;;;;;13.86;88.73;100502.97;10456511;28;20499;-64
2023/12/21 00:26:52;;;;;;;1999.90;999.90;;;;;;;13.82;85.69;100507.63;10455640;28;20090;-63
2023/12/21 00:31:55;;;;;;;1999.90;999.90;;;;;;;14.18;86.63;100505.75;10455240;28;20128;-63
2023/12/21 00:36:57;;;;;;;1999.90;999.90;;;;;;;14.42;84.42;100495.09;10455418;28;20053;-63
2023/12/21 00:42:00;;;;;;;1999.90;999.90;;;;;;;13.54;88.20;100478.13;10456045;28;20504;-63
2023/12/21 00:47:03;;;;;;;1999.90;999.90;;;;;;;14.01;87.25;100464.09;10456409;28;20053;-63
2023/12/21 00:52:05;;;;;;;1999.90;999.90;;;;;;;13.64;86.90;100457.22;10456213;28;20137;-63
2023/12/21 00:57:08;;;;;;;1999.90;999.90;;;;;;;14.33;85.48;100455.50;10455923;28;20053;-63
2023/12/21 01:02:12;;;;;;;1999.90;999.90;;;;;;;14.24;86.69;100443.88;10456018;28;20048;-63
2023/12/21 01:07:15;;;;;;;1999.90;999.90;;;;;;;14.13;88.35;100432.38;10462147;28;20103;-63
2023/12/21 01:12:17;;;;;;;1999.90;999.90;;;;;;;14.21;85.03;100413.38;10463946;28;20052;-63
2023/12/21 01:17:19;;;;;;;1999.90;999.90;;;;;;;14.66;83.89;100410.69;10463698;28;20048;-63
2023/12/21 01:22:22;;;;;;;1999.90;999.90;;;;;;;14.07;86.13;100398.66;10463462;28;20049;-63
2023/12/21 01:27:24;;;;;;;1999.90;999.90;;;;;;;14.24;86.95;100399.09;10463401;28;20053;-63
2023/12/21 01:32:34;;;;;;;1999.90;999.90;;;;;;;14.27;86.69;100394.47;10462954;28;20045;-63
2023/12/21 01:37:36;;;;;;;1999.90;999.90;;;;;;;14.75;84.24;100390.66;10461653;28;20085;-63
2023/12/21 01:42:39;;;;;;;1999.90;999.90;;;;;;;14.12;87.03;100380.72;10462595;28;20060;-63
2023/12/21 01:47:43;;;;;;;1999.90;999.90;;;;;;;14.38;83.79;100376.97;10462605;28;20053;-63
2023/12/21 01:52:46;;;;;;;1999.90;999.90;;;;;;;14.22;84.88;100351.88;10461103;28;20498;-63
2023/12/21 01:57:49;;;;;;;1999.90;999.90;;;;;;;15.00;82.14;100343.84;10461389;28;20095;-63
2023/12/21 02:02:52;;;;;;;1999.90;999.90;;;;;;;13.69;85.31;100355.13;10460763;28;20060;-63
2023/12/21 02:07:54;;;;;;;1999.90;999.90;;;;;;;14.72;85.95;100359.28;10460511;28;20080;-63
2023/12/21 02:12:56;;;;;;;1999.90;999.90;;;;;;;14.29;84.33;100370.66;10461528;28;20555;-63
2023/12/21 02:18:02;;;;;;;1999.90;999.90;;;;;;;14.16;87.77;100357.59;10460490;28;20095;-63
2023/12/21 02:23:05;;;;;;;1999.90;999.90;;;;;;;14.30;85.22;100332.81;10460082;28;20118;-63
2023/12/21 02:28:07;;;;;;;1999.90;999.90;;;;;;;14.53;84.24;100330.13;10459774;28;20455;-63
2023/12/21 02:33:10;;;;;;;1999.90;999.90;;;;;;;14.59;84.56;100330.50;10460748;28;20064;-63
2023/12/21 02:38:12;;;;;;;1999.90;999.90;;;;;;;14.43;84.71;100306.31;10460656;28;20053;-63
2023/12/21 02:43:15;;;;;;;1999.90;999.90;;;;;;;14.13;85.64;100303.41;10460178;28;20440;-63
2023/12/21 02:48:17;;;;;;;1999.90;999.90;;;;;;;13.76;89.92;100287.06;10460833;28;20098;-63
2023/12/21 02:53:20;;;;;;;1999.90;999.90;;;;;;;14.36;85.35;100279.66;10459934;28;20049;-63
2023/12/21 02:58:23;;;;;;;1999.90;999.90;;;;;;;13.65;90.24;100281.81;10459677;28;20423;-63
2023/12/21 03:03:26;;;;;;;1999.90;999.90;;;;;;;14.21;86.40;100287.00;10459607;28;20045;-63
2023/12/21 03:08:28;;;;;;;1999.90;999.90;;;;;;;14.05;87.24;100260.22;10459809;28;20415;-63
2023/12/21 03:13:30;;;;;;;1999.90;999.90;;;;;;;13.99;88.82;100245.78;10458649;28;20095;-63
2023/12/21 03:18:33;;;;;;;1999.90;999.90;;;;;;;13.68;89.82;100227.16;10458891;28;20057;-63
2023/12/21 03:23:35;;;;;;;1999.90;999.90;;;;;;;14.40;85.93;100190.69;10457124;28;20095;-63
2023/12/21 03:28:44;;;;;;;1999.90;999.90;;;;;;;14.19;87.95;100185.38;10458499;28;20052;-63
2023/12/21 03:33:47;;;;;;;1999.90;999.90;;;;;;;14.19;86.98;100172.22;10457194;28;20500;-63
2023/12/21 03:38:49;;;;;;;1999.90;999.90;;;;;;;13.73;89.23;100166.28;10458183;28;20123;-63
2023/12/21 03:43:52;;;;;;;1999.90;999.90;;;;;;;14.42;86.31;100147.44;10457810;28;20048;-63
2023/12/21 03:48:54;;;;;;;1999.90;999.90;;;;;;;13.90;87.09;100138.59;10457919;28;20057;-63
2023/12/21 03:53:57;;;;;;;1999.90;999.90;;;;;;;14.17;88.49;100151.31;10456295;28;20492;-63
2023/12/21 03:58:59;;;;;;;1999.90;999.90;;;;;;;13.50;88.83;100152.34;10457604;28;20107;-63
2023/12/21 04:04:01;;;;;;;1999.90;999.90;;;;;;;14.94;82.04;100141.38;10457236;28;20049;-63
2023/12/21 04:09:04;;;;;;;1999.90;999.90;;;;;;;13.70;88.17;100127.94;10457512;28;20103;-63
2023/12/21 04:14:06;;;;;;;1999.90;999.90;;;;;;;14.24;84.50;100112.13;10455982;28;20049;-63
2023/12/21 04:19:08;;;;;;;1999.90;999.90;;;;;;;14.35;86.33;100093.63;10456748;28;20052;-63
2023/12/21 04:24:11;;;;;;;1999.90;999.90;;;;;;;14.41;85.96;100076.50;10456863;28;20051;-63
2023/12/21 04:29:13;;;;;;;1999.90;999.90;;;;;;;14.49;86.82;100068.75;10456596;28;20051;-63
2023/12/21 04:34:16;;;;;;;1999.90;999.90;;;;;;;14.64;86.07;100042.94;10455974;28;20119;-63
2023/12/21 04:39:18;;;;;;;1999.90;999.90;;;;;;;13.90;88.99;100023.69;10459781;28;20051;-63
2023/12/21 04:44:21;;;;;;;1999.90;999.90;;;;;;;14.18;87.02;100021.34;10469884;28;20060;-63
2023/12/21 04:49:26;;;;;;;1999.90;999.90;;;;;;;14.00;84.29;99997.41;10469827;28;20530;-63
2023/12/21 04:54:29;;;;;;;1999.90;999.90;;;;;;;14.37;87.80;99964.47;10452780;28;20110;-63
2023/12/21 04:59:31;;;;;;;1999.90;999.90;;;;;;;14.02;86.74;99958.66;10470388;28;20128;-63
2023/12/21 05:04:34;;;;;;;1999.90;999.90;;;;;;;14.26;84.68;99968.88;10469574;28;20128;-63
2023/12/21 05:09:37;;;;;;;1999.90;999.90;;;;;;;13.99;87.70;99958.91;10470354;28;20053;-63
2023/12/21 05:14:39;;;;;;;1999.90;999.90;;;;;;;14.28;84.83;99942.41;10468451;28;20045;-63
2023/12/21 05:19:42;;;;;;;1999.90;999.90;;;;;;;13.92;85.79;99949.88;10469365;28;20501;-63
2023/12/21 05:24:45;;;;;;;1999.90;999.90;;;;;;;14.75;83.94;99961.16;10469178;28;20056;-63
2023/12/21 05:29:47;;;;;;;1999.90;999.90;;;;;;;14.15;85.88;99953.16;10469251;28;20060;-63
2023/12/21 05:34:49;;;;;;;1999.90;999.90;;;;;;;14.82;82.08;99929.81;10468209;28;20076;-63
2023/12/21 05:39:52;;;;;;;1999.90;999.90;;;;;;;14.46;87.56;99908.38;10469128;28;20049;-63
2023/12/21 05:44:54;;;;;;;1999.90;999.90;;;;;;;14.11;85.52;99912.28;10469408;28;20049;-63
2023/12/21 05:49:56;;;;;;;1999.90;999.90;;;;;;;14.72;84.87;99927.16;10466582;28;20435;-63
2023/12/21 05:54:59;;;;;;;1999.90;999.90;;;;;;;14.61;85.53;99922.88;10461743;28;20107;-63
2023/12/21 06:00:01;;;;;;;1999.90;999.90;;;;;;;14.60;84.58;99907.19;10462571;28;20405;-63
2023/12/21 06:05:04;;;;;;;1999.90;999.90;;;;;;;14.50;88.22;99915.84;10461876;28;20045;-63
2023/12/21 06:10:08;;;;;;;1999.90;999.90;;;;;;;14.66;88.78;99915.38;10461656;28;20635;-63
2023/12/21 06:15:11;;;;;;;1999.90;999.90;;;;;;;14.55;86.85;99904.94;10460524;28;20056;-63
2023/12/21 06:20:13;;;;;;;1999.90;999.90;;;;;;;14.41;84.28;99894.78;10461238;28;20052;-63
2023/12/21 06:25:16;;;;;;;1999.90;999.90;;;;;;;14.78;84.33;99858.13;10461196;28;20063;-63
2023/12/21 06:30:18;;;;;;;1999.90;999.90;;;;;;;14.81;85.40;99864.91;10460918;28;20045;-63
2023/12/21 06:35:21;;;;;;;1999.90;999.90;;;;;;;14.19;87.31;99857.16;10460959;28;20056;-63
2023/12/21 06:40:23;;;;;;;1999.90;999.90;;;;;;;14.22;88.02;99854.28;10459521;28;20081;-63
2023/12/21 06:45:26;;;;;;;1999.90;999.90;;;;;;;14.73;84.46;99846.34;10460261;28;20052;-63
2023/12/21 06:50:28;;;;;;;1999.90;999.90;;;;;;;13.97;90.59;99842.44;10460054;28;20048;-63
2023/12/21 06:55:34;;;;;;;1999.90;999.90;;;;;;;14.82;86.77;99816.53;10460005;28;20114;-63
2023/12/21 07:00:36;;;;;;;1999.90;999.90;;;;;;;14.95;84.99;99817.06;10459695;28;20419;-63
2023/12/21 07:05:39;;;;;;;1999.90;999.90;;;;;;;14.44;88.23;99783.88;10459062;28;20389;-63
2023/12/21 07:10:41;;;;;;;1999.90;999.90;;;;;;;15.05;85.78;99780.97;10459571;28;20098;-63
2023/12/21 07:15:44;;;;;;;1999.90;999.90;;;;;;;14.17;87.11;99761.72;10459188;28;20055;-63
2023/12/21 07:20:46;;;;;;;1999.90;999.90;;;;;;;13.97;88.61;99742.44;10458975;28;20053;-64
2023/12/21 07:25:49;;;;;;;1999.90;999.90;;;;;;;14.46;86.02;99731.94;10458525;28;20056;-63
2023/12/21 07:30:52;;;;;;;1999.90;999.90;;;;;;;13.80;91.13;99698.34;10458940;28;20127;-63
2023/12/21 07:35:54;;;;;;;1999.90;999.90;;;;;;;14.43;88.46;99717.22;10458793;28;20099;-63
2023/12/21 07:40:56;;;;;;;1999.90;999.90;;;;;;;14.64;87.22;99725.03;10458055;28;20506;-63
2023/12/21 07:45:58;;;;;;;1999.90;999.90;;;;;;;14.22;89.41;99725.28;10456713;28;20472;-63
2023/12/21 07:51:01;;;;;;;1999.90;999.90;;;;;;;14.24;87.14;99707.53;10456581;28;20048;-63
2023/12/21 07:56:04;;;;;;;1999.90;999.90;;;;;;;14.57;87.31;99684.34;10457451;28;20127;-63
2023/12/21 08:01:07;;;;;;;1999.90;999.90;;;;;;;15.22;82.99;99679.22;10457999;28;20419;-63
2023/12/21 08:06:20;;;;;;;1999.90;999.90;;;;;;;14.97;87.37;99693.88;10457196;28;20044;-63
2023/12/21 08:11:22;;;;;;;1999.90;999.90;;;;;;;14.12;90.37;99682.31;10457277;28;20095;-63
2023/12/21 08:16:25;;;;;;;1999.90;999.90;;;;;;;14.59;89.39;99679.84;10456852;28;20128;-64
2023/12/21 08:21:27;;;;;;;1999.90;999.90;;;;;;;14.30;91.96;99678.00;10455633;28;20076;-63
2023/12/21 08:26:29;;;;;;;1999.90;999.90;;;;;;;14.57;88.17;99662.47;10456417;28;20492;-63
2023/12/21 08:31:32;;;;;;;1999.90;999.90;;;;;;;14.84;88.80;99651.19;10456504;28;20049;-63
2023/12/21 08:36:34;;;;;;;1999.90;999.90;;;;;;;14.45;90.78;99651.25;10457061;28;20087;-63
2023/12/21 08:41:36;;;;;;;1999.90;999.90;;;;;;;14.33;91.20;99632.16;10455111;28;20519;-63
2023/12/21 08:46:43;;;;;;;1999.90;999.90;;;;;;;14.00;92.42;99620.25;10456399;28;20044;-63
2023/12/21 08:51:45;;;;;;;1999.90;999.90;;;;;;;14.27;94.64;99623.03;10455151;28;20049;-63
2023/12/21 08:56:50;;;;;;;1999.90;999.90;;;;;;;14.59;92.57;99615.78;10456042;28;20127;-63
2023/12/21 09:01:57;;;;;;;1999.90;999.90;;;;;;;14.54;90.79;99625.88;10450918;28;20049;-62
2023/12/21 09:07:00;;;;;;;1999.90;999.90;;;;;;;14.98;89.38;99615.66;10441729;28;20048;-64
2023/12/21 09:12:02;;;;;;;1999.90;999.90;;;;;;;14.86;90.07;99602.66;10411867;28;20054;-63
2023/12/21 09:17:05;;;;;;;1999.90;999.90;;;;;;;14.22;92.11;99584.91;10442867;28;20050;-63
2023/12/21 09:22:08;;;;;;;1999.90;999.90;;;;;;;14.66;89.28;99575.56;10455849;28;20063;-63
2023/12/21 09:27:10;;;;;;;1999.90;999.90;;;;;;;14.94;89.25;99580.00;10460536;28;20080;-63
2023/12/21 09:32:13;;;;;;;1999.90;999.90;;;;;;;14.78;92.13;99564.84;10446666;28;20044;-63
2023/12/21 09:37:16;;;;;;;1999.90;999.90;;;;;;;14.68;89.71;99560.44;10449881;28;20049;-63
2023/12/21 09:42:18;;;;;;;1999.90;999.90;;;;;;;14.77;92.50;99557.91;10459309;28;20045;-63
2023/12/21 09:47:23;;;;;;;1999.90;999.90;;;;;;;15.36;89.78;99561.03;10459392;28;20529;-63
2023/12/21 09:52:26;;;;;;;1999.90;999.90;;;;;;;15.03;90.30;99556.25;10461936;28;20041;-63
2023/12/21 09:57:29;;;;;;;1999.90;999.90;;;;;;;14.65;89.52;99530.91;10461804;28;20045;-64
2023/12/21 10:02:31;;;;;;;1999.90;999.90;;;;;;;15.00;89.86;99535.44;10461497;28;20473;-64
2023/12/21 10:07:34;;;;;;;1999.90;999.90;;;;;;;15.11;88.01;99555.50;10456762;28;20049;-65
2023/12/21 10:12:40;;;;;;;1999.90;999.90;;;;;;;15.01;92.07;99545.03;10459940;28;20055;-64
2023/12/21 10:17:43;;;;;;;1999.90;999.90;;;;;;;15.28;88.58;99535.44;10457946;28;20500;-64
2023/12/21 10:22:45;;;;;;;1999.90;999.90;;;;;;;15.38;85.47;99532.72;10456854;28;20064;-64
2023/12/21 10:27:53;;;;;;;1999.90;999.90;;;;;;;15.15;90.97;99527.88;10456765;28;20053;-64
2023/12/21 10:32:56;;;;;;;1999.90;999.90;;;;;;;15.35;89.59;99527.75;10452226;28;20045;-64
2023/12/21 10:38:00;;;;;;;1999.90;999.90;;;;;;;15.49;88.45;99516.66;10425713;22;20050;-64
2023/12/21 10:43:03;;;;;;;1999.90;999.90;;;;;;;15.30;90.84;99503.63;10373335;28;20133;-64
2023/12/21 10:48:08;;;;;;;1999.90;999.90;;;;;;;14.97;90.73;99505.94;10375892;28;20054;-64
2023/12/21 10:53:13;;;;;;;1999.90;999.90;;;;;;;15.17;92.14;99512.72;10377007;28;20052;-64
2023/12/21 10:58:16;;;;;;;1999.90;999.90;;;;;;;14.99;91.66;99490.78;10376828;28;20060;-64
2023/12/21 11:03:19;;;;;;;1999.90;999.90;;;;;;;15.15;92.45;99480.44;10376385;28;20052;-64
2023/12/21 11:08:23;;;;;;;1999.90;999.90;;;;;;;15.78;88.78;99465.47;10377466;28;20050;-64
2023/12/21 11:13:25;;;;;;;1999.90;999.90;;;;;;;15.56;87.35;99486.06;10376165;28;20053;-64
2023/12/21 11:18:28;;;;;;;1999.90;999.90;;;;;;;15.41;91.49;99459.38;10375868;28;20054;-64
2023/12/21 11:23:32;;;;;;;1999.90;999.90;;;;;;;15.40;91.36;99449.03;10375675;28;20077;-64
2023/12/21 11:28:35;;;;;;;1999.90;999.90;;;;;;;15.22;88.54;99430.56;10376557;28;20408;-64
2023/12/21 11:33:38;;;;;;;1999.90;999.90;;;;;;;15.96;87.24;99439.06;10376602;28;20212;-64
2023/12/21 11:38:47;;;;;;;1999.90;999.90;;;;;;;15.44;88.88;99444.25;10376221;28;20104;-64
2023/12/21 11:44:00;;;;;;;1999.90;999.90;;;;;;;15.31;91.21;99465.72;10376264;28;20046;-64
2023/12/21 11:49:04;;;;;;;1999.90;999.90;;;;;;;15.10;91.17;99444.97;10375164;28;20073;-64
2023/12/21 11:54:07;;;;;;;1999.90;999.90;;;;;;;15.27;90.72;99403.75;10375672;28;20054;-64
2023/12/21 11:59:10;;;;;;;1999.90;999.90;;;;;;;15.57;89.76;99421.78;10375704;28;20063;-64
2023/12/21 12:04:14;;;;;;;1999.90;999.90;;;;;;;15.49;89.15;99431.44;10375759;28;20115;-63
2023/12/21 12:09:19;;;;;;;1999.90;999.90;;;;;;;15.39;87.49;99429.72;10358128;28;20128;-64
2023/12/21 12:14:22;;;;;;;1999.90;999.90;;;;;;;15.39;89.32;99442.91;10375569;28;20121;-64
2023/12/21 12:19:27;;;;;;;1999.90;999.90;;;;;;;15.29;89.26;99414.97;10374863;28;20448;-64
2023/12/21 12:24:30;;;;;;;1999.90;999.90;;;;;;;15.49;88.04;99419.06;10374756;28;20054;-64
2023/12/21 12:29:32;;;;;;;1999.90;999.90;;;;;;;15.00;89.08;99431.84;10373478;28;20077;-64
2023/12/21 12:34:35;;;;;;;1999.90;999.90;;;;;;;15.28;86.75;99397.47;10374732;28;20052;-64
2023/12/21 12:39:38;;;;;;;1999.90;999.90;;;;;;;15.10;88.68;99386.97;10374604;28;20133;-64
2023/12/21 12:44:41;;;;;;;1999.90;999.90;;;;;;;15.65;86.22;99380.59;10374285;28;20473;-64
2023/12/21 12:49:43;;;;;;;1999.90;999.90;;;;;;;15.46;84.71;99382.44;10372996;28;20413;-64
2023/12/21 12:54:46;;;;;;;1999.90;999.90;;;;;;;15.57;86.03;99381.38;10374096;28;20050;-64
2023/12/21 12:59:49;;;;;;;1999.90;999.90;;;;;;;15.54;85.50;99402.78;10374869;28;20060;-63
2023/12/21 13:04:51;;;;;;;1999.90;999.90;;;;;;;15.46;83.50;99403.56;10382060;28;20052;-63
2023/12/21 13:09:54;;;;;;;1999.90;999.90;;;;;;;15.77;83.39;99408.44;10382213;28;20085;-64
2023/12/21 13:15:12;;;;;;;1999.90;999.90;;;;;;;14.97;90.32;99356.53;10381868;28;20136;-63
2023/12/21 13:20:14;;;;;;;1999.90;999.90;;;;;;;14.63;91.40;99393.28;10381771;28;20133;-64
2023/12/21 13:25:17;;;;;;;1999.90;999.90;;;;;;;15.43;86.26;99366.94;10381400;28;20104;-64
2023/12/21 13:30:23;;;;;;;1999.90;999.90;;;;;;;15.39;85.59;99365.59;10381363;28;20057;-63
2023/12/21 13:35:25;;;;;;;1999.90;999.90;;;;;;;15.67;82.92;99394.44;10381224;28;20042;-64
2023/12/21 13:40:32;;;;;;;1999.90;999.90;;;;;;;15.40;84.10;99391.00;10380676;28;20058;-63
2023/12/21 13:45:35;;;;;;;1999.90;999.90;;;;;;;15.38;83.19;99401.69;10380669;28;20046;-63
2023/12/21 13:50:41;;;;;;;1999.90;999.90;;;;;;;15.91;81.77;99421.03;10380434;28;20125;-64
2023/12/21 13:55:44;;;;;;;1999.90;999.90;;;;;;;14.93;81.99;99391.25;10380371;28;20046;-65
2023/12/21 14:00:46;;;;;;;1999.90;999.90;;;;;;;15.14;83.65;99412.03;10380025;28;20069;-64
2023/12/21 14:05:48;;;;;;;1999.90;999.90;;;;;;;14.99;82.10;99424.91;10379990;28;20050;-63
2023/12/21 14:10:51;;;;;;;1999.90;999.90;;;;;;;15.40;81.02;99409.47;10379420;28;20057;-64
2023/12/21 14:15:53;;;;;;;1999.90;999.90;;;;;;;15.51;78.87;99411.84;10378787;28;20417;-64
2023/12/21 14:20:56;;;;;;;1999.90;999.90;;;;;;;15.27;78.47;99407.22;10379434;28;20053;-63
2023/12/21 14:25:58;;;;;;;1999.90;999.90;;;;;;;14.98;78.69;99399.56;10378944;28;20575;-63
2023/12/21 14:31:02;;;;;;;1999.90;999.90;;;;;;;14.96;76.80;99399.69;10377665;28;20142;-63
2023/12/21 14:36:05;;;;;;;1999.90;999.90;;;;;;;14.85;78.33;99394.63;10378676;28;20405;-63
2023/12/21 14:41:08;;;;;;;1999.90;999.90;;;;;;;15.23;78.67;99419.88;10378472;28;20068;-64
2023/12/21 14:46:11;;;;;;;1999.90;999.90;;;;;;;14.94;77.52;99450.88;10377275;28;20050;-63
2023/12/21 14:51:16;;;;;;;1999.90;999.90;;;;;;;15.49;74.70;99412.97;10378071;28;20057;-63
2023/12/21 14:56:18;;;;;;;1999.90;999.90;;;;;;;14.97;73.10;99414.50;10378748;28;20053;-63
2023/12/21 15:01:21;;;;;;;1999.90;999.90;;;;;;;14.99;72.25;99420.44;10378240;28;20133;-64
2023/12/21 15:06:23;;;;;;;1999.90;999.90;;;;;;;15.02;72.14;99443.88;10377355;28;20536;-64
2023/12/21 15:11:25;;;;;;;1999.90;999.90;;;;;;;15.11;70.91;99401.78;10377368;28;20050;-63
2023/12/21 15:16:28;;;;;;;1999.90;999.90;;;;;;;14.93;69.84;99434.25;10375947;28;20046;-63
2023/12/21 15:21:30;;;;;;;1999.90;999.90;;;;;;;14.70;69.63;99459.34;10377013;28;20062;-63
2023/12/21 15:26:33;;;;;;;1999.90;999.90;;;;;;;14.86;70.41;99462.16;10376420;28;20058;-63
2023/12/21 15:31:36;;;;;;;1999.90;999.90;;;;;;;14.64;69.08;99447.59;10376760;28;20056;-63
2023/12/21 15:36:41;;;;;;;1999.90;999.90;;;;;;;14.53;68.24;99424.91;10376135;28;20436;-63
2023/12/21 15:41:44;;;;;;;1999.90;999.90;;;;;;;14.80;67.11;99473.31;10376450;28;20056;-63
2023/12/21 15:46:46;;;;;;;1999.90;999.90;;;;;;;14.50;66.32;99468.13;10376109;28;20041;-63
2023/12/21 15:51:49;;;;;;;1999.90;999.90;;;;;;;14.41;66.62;99437.44;10375884;28;20058;-64
2023/12/21 15:56:51;;;;;;;1999.90;999.90;;;;;;;14.66;65.96;99493.91;10375814;28;20128;-63
2023/12/21 16:01:53;;;;;;;1999.90;999.90;;;;;;;15.11;65.52;99508.03;10375611;28;20423;-64
2023/12/21 16:06:56;;;;;;;1999.90;999.90;;;;;;;14.72;64.28;99489.00;10375501;28;20056;-63
2023/12/21 16:11:58;;;;;;;1999.90;999.90;;;;;;;14.46;64.30;99498.38;10375287;28;20041;-63
2023/12/21 16:17:00;;;;;;;1999.90;999.90;;;;;;;14.45;68.29;99506.44;10374991;28;20456;-63
2023/12/21 16:22:03;;;;;;;1999.90;999.90;;;;;;;14.45;69.04;99512.50;10374995;28;20128;-63
2023/12/21 16:27:09;;;;;;;1999.90;999.90;;;;;;;14.36;69.62;99507.31;10374685;28;20072;-63
2023/12/21 16:32:13;;;;;;;1999.90;999.90;;;;;;;14.85;67.33;99500.03;10375376;28;20133;-63
2023/12/21 16:37:15;;;;;;;1999.90;999.90;;;;;;;14.67;66.61;99521.06;10373793;28;20508;-63
2023/12/21 16:42:18;;;;;;;1999.90;999.90;;;;;;;13.71;70.59;99536.91;10374313;28;20129;-63
2023/12/21 16:47:20;;;;;;;1999.90;999.90;;;;;;;13.44;69.72;99558.63;10374209;28;20088;-63
2023/12/21 16:52:23;;;;;;;1999.90;999.90;;;;;;;13.90;68.49;99549.22;10356721;28;20057;-63
2023/12/21 16:57:25;;;;;;;1999.90;999.90;;;;;;;13.79;68.45;99552.00;10374200;28;20046;-63
2023/12/21 17:02:27;;;;;;;1999.90;999.90;;;;;;;14.25;68.40;99540.69;10372801;28;20057;-63
2023/12/21 17:07:30;;;;;;;1999.90;999.90;;;;;;;13.61;68.43;99554.50;10373812;28;20083;-63
2023/12/21 17:12:35;;;;;;;1999.90;999.90;;;;;;;13.92;68.01;99529.69;10373792;28;20413;-63
2023/12/21 17:17:37;;;;;;;1999.90;999.90;;;;;;;13.93;66.79;99528.72;10373857;28;20497;-63
2023/12/21 17:22:40;;;;;;;1999.90;999.90;;;;;;;14.03;68.73;99547.13;10373774;28;20131;-63
2023/12/21 17:27:44;;;;;;;1999.90;999.90;;;;;;;13.00;74.13;99593.91;10373326;28;20054;-63
2023/12/21 17:32:47;;;;;;;1999.90;999.90;;;;;;;12.14;74.61;99774.38;10373380;28;20057;-63
2023/12/21 17:37:50;;;;;;;1999.90;999.90;;;;;;;10.71;78.39;99783.56;10372061;28;20062;-63
2023/12/21 17:42:53;;;;;;;1999.90;999.90;;;;;;;10.82;79.14;99774.91;10372233;28;20050;-63
2023/12/21 17:47:55;;;;;;;1999.90;999.90;;;;;;;10.54;80.23;99735.06;10376796;28;20052;-63
2023/12/21 17:52:59;;;;;;;1999.90;999.90;;;;;;;11.02;79.69;99712.34;10380398;28;20053;-63
2023/12/21 17:58:01;;;;;;;1999.90;999.90;;;;;;;11.56;75.68;99716.03;10380434;28;20042;-63
2023/12/21 18:03:04;;;;;;;1999.90;999.90;;;;;;;10.84;78.84;99714.56;10378800;28;20555;-64
2023/12/21 18:08:06;;;;;;;1999.90;999.90;;;;;;;11.43;77.77;99714.38;10379719;28;20473;-63
2023/12/21 18:13:09;;;;;;;1999.90;999.90;;;;;;;11.16;75.47;99712.09;10379594;28;20077;-63
2023/12/21 18:18:12;;;;;;;1999.90;999.90;;;;;;;11.32;76.39;99719.63;10379306;28;20057;-63
2023/12/21 18:23:14;;;;;;;1999.90;999.90;;;;;;;11.07;76.76;99716.25;10378843;28;20057;-63
2023/12/21 18:28:18;;;;;;;1999.90;999.90;;;;;;;11.40;75.98;99740.81;10377853;28;20057;-63
2023/12/21 18:33:21;;;;;;;1999.90;999.90;;;;;;;11.49;76.02;99760.22;10379001;28;20057;-63
2023/12/21 18:38:24;;;;;;;1999.90;999.90;;;;;;;11.69;77.03;99749.00;10377176;28;20058;-63
2023/12/21 18:43:26;;;;;;;1999.90;999.90;;;;;;;11.70;74.87;99724.47;10378574;28;20050;-63
2023/12/21 18:48:29;;;;;;;1999.90;999.90;;;;;;;11.05;75.79;99710.31;10378835;28;20053;-63
2023/12/21 18:53:32;;;;;;;1999.90;999.90;;;;;;;11.57;74.63;99751.78;10378608;28;20061;-63
2023/12/21 18:58:35;;;;;;;1999.90;999.90;;;;;;;11.60;73.87;99765.47;10376283;28;20132;-63
2023/12/21 19:03:37;;;;;;;1999.90;999.90;;;;;;;11.70;73.11;99776.06;10378223;28;20100;-63
2023/12/21 19:08:43;;;;;;;1999.90;999.90;;;;;;;11.61;72.19;99798.59;10377435;28;20057;-63
2023/12/21 19:13:45;;;;;;;1999.90;999.90;;;;;;;11.85;70.88;99785.38;10377766;28;20471;-63
2023/12/21 19:18:48;;;;;;;1999.90;999.90;;;;;;;12.23;69.88;99797.25;10377311;28;20073;-63
2023/12/21 19:23:50;;;;;;;1999.90;999.90;;;;;;;12.36;68.74;99785.78;10376877;28;20081;-63
2023/12/21 19:28:52;;;;;;;1999.90;999.90;;;;;;;12.09;67.98;99792.28;10376710;28;20049;-63
2023/12/21 19:33:55;;;;;;;1999.90;999.90;;;;;;;12.40;68.04;99806.38;10376385;28;20100;-63
2023/12/21 19:38:59;;;;;;;1999.90;999.90;;;;;;;11.98;66.86;99789.66;10376210;28;20062;-63
2023/12/21 19:44:01;;;;;;;1999.90;999.90;;;;;;;12.00;66.31;99798.25;10376775;28;20165;-63
2023/12/21 19:49:03;;;;;;;1999.90;999.90;;;;;;;12.10;66.07;99807.03;10376190;28;20049;-63
2023/12/21 19:54:06;;;;;;;1999.90;999.90;;;;;;;12.19;65.20;99840.44;10374520;28;20073;-63
2023/12/21 19:59:08;;;;;;;1999.90;999.90;;;;;;;12.40;64.94;99809.00;10375984;28;20077;-63
2023/12/21 20:04:10;;;;;;;1999.90;999.90;;;;;;;12.34;64.64;99832.28;10375390;28;20046;-63
2023/12/21 20:09:16;;;;;;;1999.90;999.90;;;;;;;11.76;66.66;99841.16;10374594;28;20416;-63
2023/12/21 20:14:20;;;;;;;1999.90;999.90;;;;;;;12.15;66.54;99825.88;10373907;28;20128;-64
2023/12/21 20:19:24;;;;;;;1999.90;999.90;;;;;;;12.33;65.83;99825.38;10375213;28;20050;-63
2023/12/21 20:24:29;;;;;;;1999.90;999.90;;;;;;;11.64;67.08;99829.81;10373734;28;20096;-63
2023/12/21 20:29:31;;;;;;;1999.90;999.90;;;;;;;11.53;69.61;99846.38;10373742;28;20056;-63
2023/12/21 20:34:34;;;;;;;1999.90;999.90;;;;;;;11.88;68.58;99842.84;10374756;28;20126;-63
2023/12/21 20:39:38;;;;;;;1999.90;999.90;;;;;;;12.29;67.67;99850.19;10373351;28;20127;-63
2023/12/21 20:44:42;;;;;;;1999.90;999.90;;;;;;;11.75;68.81;99843.88;10374937;28;20046;-63
2023/12/21 20:49:45;;;;;;;1999.90;999.90;;;;;;;11.61;67.89;99861.50;10357658;28;20050;-63
2023/12/21 20:54:48;;;;;;;1999.90;999.90;;;;;;;11.92;67.35;99881.94;10374029;28;20477;-63
2023/12/21 20:59:51;;;;;;;1999.90;999.90;;;;;;;12.11;68.27;99876.13;10374082;28;20061;-63
2023/12/21 21:04:53;;;;;;;1999.90;999.90;;;;;;;12.06;68.18;99877.28;10373857;28;20046;-63
2023/12/21 21:09:56;;;;;;;1999.90;999.90;;;;;;;11.90;67.88;99888.13;10373781;28;20604;-63
2023/12/21 21:14:58;;;;;;;1999.90;999.90;;;;;;;12.49;67.37;99904.59;10373858;28;20054;-63
2023/12/21 21:20:07;;;;;;;1999.90;999.90;;;;;;;12.03;68.88;99934.41;10373852;28;20060;-63
2023/12/21 21:25:11;;;;;;;1999.90;999.90;;;;;;;12.44;67.42;99915.44;10381171;28;20141;-63
2023/12/21 21:30:14;;;;;;;1999.90;999.90;;;;;;;13.30;65.37;99931.31;10381451;28;20103;-63
2023/12/21 21:35:36;;;;;;;1999.90;999.90;;;;;;;13.53;65.65;99939.09;10380886;28;20049;-64
2023/12/21 21:40:39;;;;;;;1999.90;999.90;;;;;;;14.29;62.89;99965.97;10379579;28;20064;-64
2023/12/21 21:45:41;;;;;;;1999.90;999.90;;;;;;;12.42;68.97;100016.25;10380587;28;20153;-63
2023/12/21 21:50:44;;;;;;;1999.90;999.90;;;;;;;10.23;75.53;100018.97;10380568;28;20054;-63
2023/12/21 21:55:46;;;;;;;1999.90;999.90;;;;;;;10.04;76.99;100007.16;10379507;28;20046;-63
2023/12/21 22:00:49;;;;;;;1999.90;999.90;;;;;;;9.93;76.49;99978.28;10380073;28;20468;-63
2023/12/21 22:05:51;;;;;;;1999.90;999.90;;;;;;;10.36;76.22;99964.91;10378923;28;20088;-63